Данни от 25.05.2020 г. 14:19:01

Температура вътрешна: 23.0 °C
Температура външна: 21.4 °C
Атмосферно налягане: 1002.8 hPa
Атмосферно налягане на морско равнище: 1020.7 hPa
Влажност: 48.5 %



История от последните 24 часа

Дата и часTin [°C]P [hPa]Psl [hPa]H [%]Tout [°C]
   25.05.2020 г. 14:00:01      22.9      1003.0      1020.9      48.2      20.9   
   25.05.2020 г. 13:30:02      22.8      1003.3      1021.3      48.5      21.3   
   25.05.2020 г. 13:00:01      22.6      1003.6      1021.5      48.6      20.8   
   25.05.2020 г. 12:30:02      22.6      1004.0      1021.9      49.0      20.5   
   25.05.2020 г. 12:00:01      22.6      1004.2      1022.1      47.7      20.4   
   25.05.2020 г. 11:30:01      22.6      1004.4      1022.3      48.4      19.5   
   25.05.2020 г. 11:00:01      22.5      1004.6      1022.5      47.9      19.3   
   25.05.2020 г. 10:30:01      22.6      1004.8      1022.7      49.0      18.6   
   25.05.2020 г. 10:00:01      22.6      1005.1      1023.1      49.6      18.0   
   25.05.2020 г. 09:30:01      22.7      1005.0      1022.9      49.2      17.8   
   25.05.2020 г. 09:00:01      22.8      1005.1      1023.0      49.9      16.9   
   25.05.2020 г. 08:30:01      22.7      1005.2      1023.1      48.2      16.3   
   25.05.2020 г. 08:00:01      22.8      1005.2      1023.1      49.5      15.1   
   25.05.2020 г. 07:30:01      23.0      1005.0      1022.9      49.9      14.0   
   25.05.2020 г. 07:00:02      23.4      1005.0      1022.9      52.4      13.4   
   25.05.2020 г. 06:30:01      23.3      1004.8      1022.7      51.9      14.4   
   25.05.2020 г. 06:00:02      23.3      1004.6      1022.5      51.6      13.9   
   25.05.2020 г. 05:30:01      23.3      1004.5      1022.4      51.4      14.3   
   25.05.2020 г. 05:00:02      23.3      1004.4      1022.4      51.4      14.3   
   25.05.2020 г. 04:30:01      23.4      1004.5      1022.4      52.0      14.9   
   25.05.2020 г. 04:00:02      23.3      1004.5      1022.4      50.8      15.5   
   25.05.2020 г. 03:30:01      23.3      1004.7      1022.6      51.2      15.8   
   25.05.2020 г. 03:00:02      23.4      1004.6      1022.5      50.4      15.4   
   25.05.2020 г. 02:30:01      23.3      1004.4      1022.3      50.6      15.3   
   25.05.2020 г. 02:00:02      23.4      1004.6      1022.6      50.5      15.3   
   25.05.2020 г. 01:30:01      23.4      1004.7      1022.6      50.5      15.3   
   25.05.2020 г. 01:00:02      23.4      1004.7      1022.6      50.3      15.3   
   25.05.2020 г. 00:30:01      23.4      1004.8      1022.8      50.4      15.3   
   25.05.2020 г. 00:00:02      23.3      1004.9      1022.8      50.3      15.1   
   24.05.2020 г. 23:30:01      23.3      1004.9      1022.8      50.2      15.3   
   24.05.2020 г. 23:00:02      23.3      1004.8      1022.7      50.2      15.3   
   24.05.2020 г. 22:30:01      23.3      1005.0      1023.0      50.0      15.5   
   24.05.2020 г. 22:00:02      23.0      1004.6      1022.6      50.6      15.6   
   24.05.2020 г. 21:30:01      23.0      1004.4      1022.4      50.6      15.6   
   24.05.2020 г. 21:00:02      23.1      1004.4      1022.4      51.3      15.5   
   24.05.2020 г. 20:30:01      23.4      1004.6      1022.5      49.4      15.6   
   24.05.2020 г. 20:00:01      23.4      1004.6      1022.5      50.2      15.5   
   24.05.2020 г. 19:30:01      23.3      1004.6      1022.5      49.9      15.5   
   24.05.2020 г. 19:00:01      23.1      1004.8      1022.7      50.4      16.5   
   24.05.2020 г. 18:30:01      22.9      1004.6      1022.6      49.4      18.3   
   24.05.2020 г. 18:00:01      23.0      1003.9      1021.8      49.0      19.4   
   24.05.2020 г. 17:30:01      23.0      1003.3      1021.2      48.5      20.4   
   24.05.2020 г. 17:00:01      23.0      1002.8      1020.7      48.0      20.9   
   24.05.2020 г. 16:30:01      22.9      1002.4      1020.3      48.1      22.0   
   24.05.2020 г. 16:00:01      23.0      1001.6      1019.5      47.9      23.3   
   24.05.2020 г. 15:30:02      23.1      1000.7      1018.5      46.9      24.8   
   24.05.2020 г. 15:00:01      23.3      1000.2      1018.1      46.8      25.4   
   24.05.2020 г. 14:30:02      23.2      1000.2      1018.0      46.9      26.4   

BaroSL graphic

TEMPE graphic